createdAt,value
2023-04-18T00:28:56.647Z,8.61
2023-04-18T05:47:41.701Z,7.86
2023-04-18T05:50:57.215Z,8.02
2023-04-18T05:53:29.519Z,8.16
2023-04-18T05:56:05.436Z,8.40
2023-04-18T05:58:35.065Z,8.30
2023-04-18T06:01:05.139Z,8.40
2023-04-18T06:12:32.858Z,8.71
2023-04-18T06:15:18.690Z,8.72
2023-04-18T06:27:59.307Z,8.81
2023-04-18T07:04:31.931Z,9.67
2023-04-18T07:39:42.027Z,10.02
2023-04-18T17:58:40.084Z,14.84
2023-04-18T18:04:00.818Z,14.63
2023-04-18T18:09:08.421Z,14.43
2023-04-18T18:11:35.458Z,14.32
2023-04-18T18:14:02.184Z,14.26
2023-04-18T18:19:09.217Z,14.12
2023-04-18T18:21:36.544Z,14.09
2023-04-18T18:26:43.639Z,14.08
2023-04-18T18:31:51.642Z,13.94
2023-04-18T18:34:18.193Z,13.82
2023-04-18T18:36:44.778Z,13.75
2023-04-18T18:39:11.789Z,13.77
2023-04-18T18:41:45.945Z,13.61
2023-04-18T18:44:12.496Z,13.62
2023-04-18T18:46:39.136Z,13.54
2023-04-18T18:49:05.820Z,13.48
2023-04-18T18:51:32.806Z,13.41
2023-04-18T18:56:40.280Z,13.28
2023-04-18T19:01:47.341Z,13.03
2023-04-18T19:04:14.237Z,12.96
2023-04-18T19:06:45.748Z,12.90
2023-04-18T19:09:12.851Z,12.83
2023-04-18T19:11:39.615Z,12.82
2023-04-18T19:14:06.178Z,12.76
2023-04-18T19:16:34.233Z,12.78
2023-04-18T19:19:01.179Z,12.89
2023-04-18T19:21:28.054Z,12.85
2023-04-18T19:23:54.608Z,12.85
2023-04-18T19:26:21.817Z,12.88
2023-04-18T19:28:48.585Z,12.80
2023-04-18T19:33:55.641Z,12.89
2023-04-18T19:39:03.005Z,12.93
2023-04-18T19:41:29.602Z,12.92
2023-04-18T19:46:37.724Z,13.06
2023-04-18T19:51:44.704Z,13.07
2023-04-18T19:54:11.295Z,12.99
2023-04-18T19:59:19.075Z,13.02
2023-04-18T20:01:45.652Z,13.02
2023-04-18T20:04:12.432Z,13.07
2023-04-18T20:06:39.127Z,13.17
2023-04-18T20:09:05.913Z,13.27
2023-04-18T20:11:32.674Z,13.15
2023-04-18T20:13:59.272Z,13.20
2023-04-18T20:16:26.180Z,13.15
2023-04-18T20:18:54.882Z,13.07
2023-04-18T20:21:21.696Z,13.06
2023-04-18T20:23:48.278Z,12.99
2023-04-18T20:26:14.941Z,13.06
2023-04-18T20:28:41.731Z,13.09
2023-04-18T20:31:08.393Z,13.06
2023-04-18T20:33:36.248Z,12.99
2023-04-18T20:36:02.840Z,13.07
2023-04-18T20:38:29.905Z,13.06
2023-04-18T20:40:59.008Z,12.97
2023-04-18T20:43:25.944Z,13.15
2023-04-18T20:45:53.844Z,13.28
2023-04-18T20:48:21.075Z,13.07
2023-04-18T20:53:31.649Z,13.03
2023-04-18T20:58:38.681Z,13.02
2023-04-18T21:03:46.020Z,13.07
2023-04-18T21:06:12.906Z,12.96
2023-04-18T21:41:38.558Z,12.86
